Time;durP1;ratioP1;P1;durP2;ratioP2;P2;SDS_P1;SDS_P2;PMS_P1;PMS_P2;Temp;Humidity;BMP_temperature;BMP_pressure;BME280_temperature;BME280_humidity;BME280_pressure;Samples;Min_cycle;Max_cycle;Signal;HPM_P1;HPM_P2
2022/10/19 00:00:41;;;;;;;;;;;21.70;52.60;;;;;;8363663;28;19917;-44
2022/10/19 00:04:41;;;;;;;;;;;21.70;52.70;;;;;;8364128;28;19921;-44
2022/10/19 00:08:42;;;;;;;;;;;21.70;52.60;;;;;;8363859;28;19921;-44
2022/10/19 00:12:42;;;;;;;;;;;21.70;52.60;;;;;;8363739;28;19923;-45
2022/10/19 00:16:44;;;;;;;;;;;21.60;52.50;;;;;;8363743;28;20003;-44
2022/10/19 00:20:44;;;;;;;;;;;21.60;52.50;;;;;;8363572;28;19912;-44
2022/10/19 00:24:45;;;;;;;;;;;21.60;52.50;;;;;;8363382;28;19916;-43
2022/10/19 00:28:45;;;;;;;;;;;21.60;52.50;;;;;;8363584;28;20294;-45
2022/10/19 00:32:46;;;;;;;;;;;21.60;52.50;;;;;;8363373;28;20369;-43
2022/10/19 00:36:46;;;;;;;;;;;21.60;52.50;;;;;;8331135;28;19917;-44
2022/10/19 00:40:47;;;;;;;;;;;21.60;52.50;;;;;;8330336;28;19948;-45
2022/10/19 00:44:47;;;;;;;;;;;21.60;52.50;;;;;;8329989;28;20381;-44
2022/10/19 00:48:49;;;;;;;;;;;21.50;52.50;;;;;;8335578;28;19987;-44
2022/10/19 00:52:49;;;;;;;;;;;21.60;52.50;;;;;;8337237;28;19963;-44
2022/10/19 00:56:52;;;;;;;;;;;21.50;52.50;;;;;;8336403;28;19917;-45
2022/10/19 01:00:52;;;;;;;;;;;21.50;52.50;;;;;;8336737;28;19918;-44
2022/10/19 01:04:52;;;;;;;;;;;21.50;53.00;;;;;;8336502;28;19921;-43
2022/10/19 01:08:53;;;;;;;;;;;21.50;52.50;;;;;;8335934;28;20309;-43
2022/10/19 01:13:13;;;;;;;;;;;21.50;52.50;;;;;;8366814;28;19917;-44
2022/10/19 01:17:32;;;;;;;;;;;21.40;52.40;;;;;;8369505;28;19921;-44
2022/10/19 01:21:45;;;;;;;;;;;21.40;52.50;;;;;;8368582;28;19921;-43
2022/10/19 01:26:05;;;;;;;;;;;21.40;52.40;;;;;;8368958;28;19917;-44
2022/10/19 01:30:07;;;;;;;;;;;21.40;52.50;;;;;;8368428;28;20297;-43
2022/10/19 01:34:10;;;;;;;;;;;21.40;52.40;;;;;;8368697;28;19916;-45
2022/10/19 01:38:10;;;;;;;;;;;21.40;52.40;;;;;;8368976;28;19917;-45
2022/10/19 01:42:21;;;;;;;;;;;21.40;52.40;;;;;;8368033;28;19917;-43
2022/10/19 01:46:24;;;;;;;;;;;21.40;52.50;;;;;;8368299;28;20451;-43
2022/10/19 01:50:29;;;;;;;;;;;21.40;52.40;;;;;;8368235;28;19917;-44
2022/10/19 01:54:31;;;;;;;;;;;21.30;52.40;;;;;;8367618;28;19917;-44
2022/10/19 01:58:33;;;;;;;;;;;21.30;52.40;;;;;;8368263;28;20362;-44
2022/10/19 02:02:36;;;;;;;;;;;21.30;52.30;;;;;;8368090;28;19917;-45
2022/10/19 02:06:36;;;;;;;;;;;21.30;52.30;;;;;;8367123;28;20340;-45
2022/10/19 02:10:38;;;;;;;;;;;21.30;52.30;;;;;;8367589;28;19970;-44
2022/10/19 02:14:40;;;;;;;;;;;21.30;52.30;;;;;;8367478;28;19917;-44
2022/10/19 02:18:43;;;;;;;;;;;21.30;52.30;;;;;;8366951;28;19959;-44
2022/10/19 02:22:44;;;;;;;;;;;21.30;52.40;;;;;;8367760;28;20396;-45
2022/10/19 02:26:44;;;;;;;;;;;21.20;52.30;;;;;;8367142;28;19931;-44
2022/10/19 02:30:45;;;;;;;;;;;21.20;52.30;;;;;;8366606;28;19924;-44
2022/10/19 02:34:45;;;;;;;;;;;21.20;52.30;;;;;;8366854;28;19917;-44
2022/10/19 02:38:46;;;;;;;;;;;21.20;52.30;;;;;;8366450;28;19913;-43
2022/10/19 02:42:46;;;;;;;;;;;21.20;52.30;;;;;;8366885;28;19917;-44
2022/10/19 02:46:50;;;;;;;;;;;21.20;52.30;;;;;;8366381;28;19925;-43
2022/10/19 02:50:50;;;;;;;;;;;21.20;52.30;;;;;;8365935;28;19917;-43
2022/10/19 02:54:51;;;;;;;;;;;21.20;52.20;;;;;;8366450;28;20389;-44
2022/10/19 02:58:51;;;;;;;;;;;21.20;52.30;;;;;;8366312;28;20361;-44
2022/10/19 03:02:52;;;;;;;;;;;21.10;52.20;;;;;;8365777;28;19996;-44
2022/10/19 03:06:52;;;;;;;;;;;21.10;52.20;;;;;;8366067;28;19932;-45
2022/10/19 03:10:53;;;;;;;;;;;21.10;52.20;;;;;;8365168;28;20358;-44
2022/10/19 03:14:53;;;;;;;;;;;21.10;52.20;;;;;;8365204;28;19925;-45
2022/10/19 03:18:54;;;;;;;;;;;21.10;52.10;;;;;;8366068;28;20365;-44
2022/10/19 03:22:54;;;;;;;;;;;21.10;52.20;;;;;;8365612;28;20126;-45
2022/10/19 03:26:55;;;;;;;;;;;21.10;52.20;;;;;;8364723;28;20008;-45
2022/10/19 03:30:55;;;;;;;;;;;21.10;52.20;;;;;;8364934;28;20370;-44
2022/10/19 03:34:56;;;;;;;;;;;21.10;52.20;;;;;;8365055;28;19921;-43
2022/10/19 03:38:57;;;;;;;;;;;21.10;52.20;;;;;;8364643;28;19917;-44
2022/10/19 03:42:57;;;;;;;;;;;21.00;52.10;;;;;;8364733;28;19917;-44
2022/10/19 03:46:58;;;;;;;;;;;21.10;52.10;;;;;;8364551;28;20019;-44
2022/10/19 03:50:59;;;;;;;;;;;21.00;52.10;;;;;;8364498;28;19917;-43
2022/10/19 03:55:00;;;;;;;;;;;21.00;52.00;;;;;;8365001;28;19920;-44
2022/10/19 03:59:01;;;;;;;;;;;21.00;52.00;;;;;;8364654;28;20412;-44
2022/10/19 04:03:01;;;;;;;;;;;21.00;52.00;;;;;;8363823;28;20369;-45
2022/10/19 04:07:02;;;;;;;;;;;21.00;52.00;;;;;;8364401;28;19932;-44
2022/10/19 04:11:03;;;;;;;;;;;21.00;52.00;;;;;;8362817;28;19924;-44
2022/10/19 04:15:04;;;;;;;;;;;21.00;52.10;;;;;;8363360;28;19920;-45
2022/10/19 04:19:04;;;;;;;;;;;21.00;52.10;;;;;;8364260;28;20326;-46
2022/10/19 04:23:05;;;;;;;;;;;21.00;52.10;;;;;;8362892;28;19916;-44
2022/10/19 04:27:05;;;;;;;;;;;21.00;52.00;;;;;;8363138;28;19963;-45
2022/10/19 04:31:06;;;;;;;;;;;21.00;52.10;;;;;;8363556;28;19917;-44
2022/10/19 04:35:07;;;;;;;;;;;20.90;52.00;;;;;;8363521;28;19931;-44
2022/10/19 04:39:07;;;;;;;;;;;20.90;52.00;;;;;;8363636;28;20464;-46
2022/10/19 04:43:08;;;;;;;;;;;20.90;52.00;;;;;;8363729;28;19960;-45
2022/10/19 04:47:08;;;;;;;;;;;20.90;52.00;;;;;;8363468;28;19929;-44
2022/10/19 04:51:09;;;;;;;;;;;20.90;52.00;;;;;;8362764;28;19916;-45
2022/10/19 04:55:10;;;;;;;;;;;20.90;52.00;;;;;;8363386;28;20023;-44
2022/10/19 04:59:10;;;;;;;;;;;20.90;52.00;;;;;;8363306;28;19913;-44
2022/10/19 05:03:10;;;;;;;;;;;20.90;52.00;;;;;;8362435;28;20015;-44
2022/10/19 05:07:11;;;;;;;;;;;20.90;52.00;;;;;;8363083;28;20377;-43
2022/10/19 05:11:13;;;;;;;;;;;20.90;51.90;;;;;;8362771;28;20374;-44
2022/10/19 05:15:13;;;;;;;;;;;20.90;52.00;;;;;;8362367;28;19966;-43
2022/10/19 05:19:14;;;;;;;;;;;20.90;51.90;;;;;;8363266;28;19920;-44
2022/10/19 05:23:14;;;;;;;;;;;20.80;51.90;;;;;;8362910;28;19923;-44
2022/10/19 05:27:15;;;;;;;;;;;20.80;51.90;;;;;;8362152;28;19983;-43
2022/10/19 05:31:17;;;;;;;;;;;20.80;51.90;;;;;;8351123;28;19971;-45
2022/10/19 05:35:17;;;;;;;;;;;20.80;51.90;;;;;;8335202;28;19925;-44
2022/10/19 05:39:17;;;;;;;;;;;20.80;51.90;;;;;;8335307;28;19913;-43
2022/10/19 05:43:18;;;;;;;;;;;20.80;52.00;;;;;;8335401;28;20294;-44
2022/10/19 05:47:18;;;;;;;;;;;20.80;51.90;;;;;;8335179;28;19921;-44
2022/10/19 05:51:19;;;;;;;;;;;20.80;51.90;;;;;;8334613;28;19924;-44
2022/10/19 05:55:20;;;;;;;;;;;20.80;52.00;;;;;;8334965;28;19997;-44
2022/10/19 05:59:20;;;;;;;;;;;20.80;52.00;;;;;;8335138;28;19917;-44
2022/10/19 06:03:21;;;;;;;;;;;20.80;51.90;;;;;;8334201;28;20279;-44
2022/10/19 06:07:22;;;;;;;;;;;20.80;52.00;;;;;;8334753;28;19925;-45
2022/10/19 06:11:24;;;;;;;;;;;20.70;51.90;;;;;;8334324;28;20012;-45
2022/10/19 06:15:25;;;;;;;;;;;20.70;51.80;;;;;;8333863;28;20402;-44
2022/10/19 06:19:25;;;;;;;;;;;20.70;51.90;;;;;;8334479;28;19917;-43
2022/10/19 06:23:26;;;;;;;;;;;20.70;51.90;;;;;;8334004;28;19917;-44
2022/10/19 06:27:26;;;;;;;;;;;20.80;51.90;;;;;;8333575;28;19929;-44
2022/10/19 06:31:27;;;;;;;;;;;20.70;51.80;;;;;;8334113;28;20410;-44
2022/10/19 06:35:28;;;;;;;;;;;20.70;51.80;;;;;;8333963;28;20436;-43
2022/10/19 06:39:28;;;;;;;;;;;20.70;51.80;;;;;;8333974;28;19921;-43
2022/10/19 06:43:29;;;;;;;;;;;20.70;51.80;;;;;;8332709;28;20012;-43
2022/10/19 06:47:31;;;;;;;;;;;20.70;51.80;;;;;;8333213;28;19925;-44
2022/10/19 06:51:35;;;;;;;;;;;20.70;51.90;;;;;;8333043;28;20358;-44
2022/10/19 06:55:35;;;;;;;;;;;20.70;51.90;;;;;;8333193;28;19914;-45
2022/10/19 06:59:36;;;;;;;;;;;20.70;51.90;;;;;;8333318;28;19917;-45
2022/10/19 07:03:36;;;;;;;;;;;20.70;51.90;;;;;;8331913;28;19921;-45
2022/10/19 07:07:37;;;;;;;;;;;20.70;51.90;;;;;;8350651;28;19978;-43
2022/10/19 07:11:37;;;;;;;;;;;20.70;51.90;;;;;;8365609;28;19913;-44
2022/10/19 07:15:38;;;;;;;;;;;20.70;51.90;;;;;;8364987;28;19917;-44
2022/10/19 07:19:38;;;;;;;;;;;20.70;51.90;;;;;;8365523;28;19917;-44
2022/10/19 07:23:39;;;;;;;;;;;20.70;51.90;;;;;;8365218;28;19939;-44
2022/10/19 07:27:40;;;;;;;;;;;20.70;51.90;;;;;;8364653;28;20397;-45
2022/10/19 07:31:41;;;;;;;;;;;20.70;51.80;;;;;;8365008;28;19920;-44
2022/10/19 07:35:42;;;;;;;;;;;20.70;51.90;;;;;;8364896;28;19921;-43
2022/10/19 07:39:42;;;;;;;;;;;20.60;51.80;;;;;;8364428;28;19921;-44
2022/10/19 07:43:43;;;;;;;;;;;20.70;51.90;;;;;;8364741;28;20439;-43
2022/10/19 07:47:44;;;;;;;;;;;20.60;51.80;;;;;;8364373;28;19925;-43
2022/10/19 07:51:45;;;;;;;;;;;20.60;51.80;;;;;;8363797;28;19962;-43
2022/10/19 07:55:46;;;;;;;;;;;20.70;51.90;;;;;;8364420;28;19913;-43
2022/10/19 07:59:46;;;;;;;;;;;20.60;51.90;;;;;;8363761;28;19924;-45
2022/10/19 08:03:47;;;;;;;;;;;20.70;51.90;;;;;;8364113;28;19951;-44
2022/10/19 08:07:48;;;;;;;;;;;20.60;51.80;;;;;;8363805;28;19921;-43
2022/10/19 08:11:48;;;;;;;;;;;20.60;51.80;;;;;;8363381;28;19917;-44
2022/10/19 08:15:49;;;;;;;;;;;20.60;51.90;;;;;;8363989;28;19913;-43
2022/10/19 08:19:49;;;;;;;;;;;20.60;51.80;;;;;;8363847;28;19924;-44
2022/10/19 08:23:49;;;;;;;;;;;20.70;51.90;;;;;;8363245;28;19924;-43
2022/10/19 08:27:50;;;;;;;;;;;20.70;51.90;;;;;;8363248;28;20015;-43
2022/10/19 08:31:51;;;;;;;;;;;20.60;51.80;;;;;;8363262;28;19916;-44
2022/10/19 08:35:55;;;;;;;;;;;20.70;51.90;;;;;;8362878;28;19920;-44
2022/10/19 08:39:56;;;;;;;;;;;20.60;51.80;;;;;;8363626;28;19924;-45
2022/10/19 08:44:05;;;;;;;;;;;20.70;51.90;;;;;;8363084;28;19921;-45
2022/10/19 08:48:24;;;;;;;;;;;20.70;51.90;;;;;;8362510;28;19939;-44
2022/10/19 08:52:27;;;;;;;;;;;20.60;51.80;;;;;;8363115;28;20282;-44
2022/10/19 08:56:37;;;;;;;;;;;20.60;51.80;;;;;;8362803;28;20378;-43
2022/10/19 09:00:38;;;;;;;;;;;20.70;51.90;;;;;;8362694;28;19974;-43
2022/10/19 09:04:47;;;;;;;;;;;20.70;51.90;;;;;;8362798;28;20055;-43
2022/10/19 09:08:49;;;;;;;;;;;20.60;51.80;;;;;;8366105;28;19925;-46
2022/10/19 09:12:55;;;;;;;;;;;20.60;51.90;;;;;;8369275;28;20298;-43
2022/10/19 09:17:01;;;;;;;;;;;20.60;51.80;;;;;;8369218;28;19913;-45
2022/10/19 09:21:06;;;;;;;;;;;20.60;51.80;;;;;;8369181;28;19963;-44
2022/10/19 09:25:19;;;;;;;;;;;20.70;51.90;;;;;;8369123;28;20296;-43
2022/10/19 09:29:23;;;;;;;;;;;20.60;51.90;;;;;;8368864;28;20386;-44
2022/10/19 09:33:29;;;;;;;;;;;20.60;51.80;;;;;;8368241;28;19924;-44
2022/10/19 09:37:31;;;;;;;;;;;20.70;51.90;;;;;;8368790;28;20279;-43
2022/10/19 09:41:32;;;;;;;;;;;20.70;51.90;;;;;;8368422;28;19921;-43
2022/10/19 09:45:43;;;;;;;;;;;20.70;51.90;;;;;;8367883;28;20293;-44
2022/10/19 09:49:45;;;;;;;;;;;20.70;51.80;;;;;;8367842;28;19951;-44
2022/10/19 09:53:46;;;;;;;;;;;20.70;51.80;;;;;;8368006;28;19912;-44
2022/10/19 09:57:48;;;;;;;;;;;20.70;51.80;;;;;;8367785;28;20334;-43
2022/10/19 10:02:01;;;;;;;;;;;20.70;51.80;;;;;;8367975;28;19920;-43
2022/10/19 10:06:22;;;;;;;;;;;20.70;51.80;;;;;;8367297;28;19920;-44
2022/10/19 10:10:24;;;;;;;;;;;20.70;51.80;;;;;;8366079;28;19944;-43
2022/10/19 10:14:27;;;;;;;;;;;20.70;51.80;;;;;;8367508;28;19999;-43
2022/10/19 10:18:28;;;;;;;;;;;20.70;51.80;;;;;;8365764;28;19917;-43
2022/10/19 10:22:36;;;;;;;;;;;20.70;51.80;;;;;;8367163;28;19924;-43
2022/10/19 10:26:41;;;;;;;;;;;20.70;51.80;;;;;;8367116;28;19920;-43
2022/10/19 10:30:43;;;;;;;;;;;20.80;51.90;;;;;;8366474;28;19917;-44
2022/10/19 10:35:03;;;;;;;;;;;20.80;51.90;;;;;;8366850;28;19924;-44
2022/10/19 10:39:05;;;;;;;;;;;20.80;51.90;;;;;;8366322;28;19912;-44
2022/10/19 10:43:14;;;;;;;;;;;20.80;51.90;;;;;;8366653;28;19920;-43
2022/10/19 10:47:16;;;;;;;;;;;20.80;51.90;;;;;;8366598;28;20374;-43
2022/10/19 10:51:22;;;;;;;;;;;20.80;51.90;;;;;;8366227;28;19923;-44
2022/10/19 10:55:22;;;;;;;;;;;20.80;51.80;;;;;;8366238;28;19952;-43
2022/10/19 10:59:26;;;;;;;;;;;20.80;51.80;;;;;;8366157;28;20324;-43
2022/10/19 11:03:31;;;;;;;;;;;20.80;51.90;;;;;;8365388;28;19921;-43
2022/10/19 11:07:33;;;;;;;;;;;20.80;51.80;;;;;;8366089;28;20358;-43
2022/10/19 11:11:41;;;;;;;;;;;20.80;51.80;;;;;;8366030;28;20030;-43
2022/10/19 11:15:51;;;;;;;;;;;20.80;51.80;;;;;;8364922;28;19952;-43
2022/10/19 11:19:52;;;;;;;;;;;20.90;51.80;;;;;;8365165;28;20004;-44
2022/10/19 11:23:58;;;;;;;;;;;20.90;51.70;;;;;;8364712;28;19919;-43
2022/10/19 11:28:21;;;;;;;;;;;20.90;51.80;;;;;;8365542;28;19921;-44
2022/10/19 11:32:28;;;;;;;;;;;20.90;51.70;;;;;;8367750;28;20390;-43
2022/10/19 11:37:04;;;;;;;;;;;20.90;51.70;;;;;;8364744;28;19920;-43
2022/10/19 11:41:05;;;;;;;;;;;20.90;51.70;;;;;;8337876;28;19992;-43
2022/10/19 11:45:29;;;;;;;;;;;20.90;51.70;;;;;;8364198;28;20274;-43
2022/10/19 11:49:29;;;;;;;;;;;20.90;51.60;;;;;;8354241;28;20325;-43
2022/10/19 11:53:33;;;;;;;;;;;21.00;51.70;;;;;;8364181;28;20050;-43
2022/10/19 11:57:38;;;;;;;;;;;21.00;51.70;;;;;;8363679;28;19917;-43
2022/10/19 12:02:03;;;;;;;;;;;21.00;51.70;;;;;;8364248;28;20373;-43
2022/10/19 12:06:13;;;;;;;;;;;21.00;51.70;;;;;;8364962;28;19925;-45
2022/10/19 12:10:16;;;;;;;;;;;21.00;51.60;;;;;;8363729;28;19925;-43
2022/10/19 12:14:23;;;;;;;;;;;21.00;51.60;;;;;;8395487;28;20154;-44
2022/10/19 12:18:26;;;;;;;;;;;21.00;51.70;;;;;;8363308;28;20292;-44
2022/10/19 12:22:28;;;;;;;;;;;21.00;51.70;;;;;;8363987;28;19917;-45
2022/10/19 12:26:30;;;;;;;;;;;21.00;51.70;;;;;;8363569;28;19927;-45
2022/10/19 12:30:31;;;;;;;;;;;21.00;51.70;;;;;;8362970;28;19928;-44
2022/10/19 12:34:50;;;;;;;;;;;21.00;51.70;;;;;;8363521;28;19917;-44
2022/10/19 12:39:09;;;;;;;;;;;21.00;51.70;;;;;;8363044;28;19913;-45
2022/10/19 12:43:14;;;;;;;;;;;21.00;51.70;;;;;;8362498;28;19959;-44
2022/10/19 12:47:19;;;;;;;;;;;21.00;51.70;;;;;;8363438;28;19963;-44
2022/10/19 12:51:20;;;;;;;;;;;21.00;51.70;;;;;;8362579;28;19917;-44
2022/10/19 12:55:20;;;;;;;;;;;21.00;51.70;;;;;;8363003;28;19924;-45
2022/10/19 12:59:25;;;;;;;;;;;21.00;51.70;;;;;;8363001;28;19916;-44
2022/10/19 13:03:28;;;;;;;;;;;21.00;51.70;;;;;;8362276;28;19966;-43
2022/10/19 13:07:30;;;;;;;;;;;21.00;51.60;;;;;;8334796;28;20028;-44
2022/10/19 13:11:31;;;;;;;;;;;21.00;51.60;;;;;;8359753;28;20005;-46
2022/10/19 13:15:34;;;;;;;;;;;21.00;51.60;;;;;;8362280;28;19917;-43
2022/10/19 13:19:35;;;;;;;;;;;21.00;51.60;;;;;;8362814;28;19921;-44
2022/10/19 13:23:36;;;;;;;;;;;21.10;51.60;;;;;;8362582;28;19924;-43
2022/10/19 13:27:37;;;;;;;;;;;21.10;51.60;;;;;;8362177;28;19921;-43
2022/10/19 13:31:38;;;;;;;;;;;21.00;51.60;;;;;;8362560;28;19917;-42
2022/10/19 13:35:39;;;;;;;;;;;21.00;51.60;;;;;;8362405;28;20366;-44
2022/10/19 13:39:40;;;;;;;;;;;21.10;51.60;;;;;;8361726;28;19917;-43
2022/10/19 13:43:56;;;;;;;;;;;21.10;51.60;;;;;;8360879;28;20370;-43
2022/10/19 13:48:05;;;;;;;;;;;21.10;51.60;;;;;;8345482;28;20360;-45
2022/10/19 13:52:25;;;;;;;;;;;21.10;51.60;;;;;;8361529;28;19917;-44
2022/10/19 13:56:28;;;;;;;;;;;21.10;51.60;;;;;;8367938;28;19921;-46
2022/10/19 14:00:33;;;;;;;;;;;21.10;51.60;;;;;;8367534;28;19944;-44
2022/10/19 14:04:42;;;;;;;;;;;21.00;51.60;;;;;;8367750;28;19921;-43
2022/10/19 14:08:48;;;;;;;;;;;21.00;51.60;;;;;;8367364;28;19925;-42
2022/10/19 14:12:49;;;;;;;;;;;21.00;51.70;;;;;;8367680;28;20385;-44
2022/10/19 14:16:55;;;;;;;;;;;21.00;51.70;;;;;;8367233;28;19969;-44
2022/10/19 14:21:00;;;;;;;;;;;21.00;51.70;;;;;;8366840;28;20504;-44
2022/10/19 14:25:09;;;;;;;;;;;21.00;51.70;;;;;;8367448;28;19921;-42
2022/10/19 14:29:11;;;;;;;;;;;21.00;51.70;;;;;;8366927;28;20403;-43
2022/10/19 14:33:14;;;;;;;;;;;21.00;51.70;;;;;;8366609;28;19917;-44
2022/10/19 14:37:16;;;;;;;;;;;21.00;51.70;;;;;;8366661;28;19917;-44
2022/10/19 14:41:20;;;;;;;;;;;21.00;51.70;;;;;;8366620;28;20316;-45
2022/10/19 14:45:22;;;;;;;;;;;21.10;51.70;;;;;;8365903;28;19924;-45
2022/10/19 14:49:22;;;;;;;;;;;21.10;51.70;;;;;;8366482;28;19925;-44
2022/10/19 14:53:33;;;;;;;;;;;21.10;51.70;;;;;;8366565;28;20042;-44
2022/10/19 14:57:34;;;;;;;;;;;21.10;51.60;;;;;;8365697;28;20125;-43
2022/10/19 15:01:35;;;;;;;;;;;21.10;51.60;;;;;;8366392;28;20413;-44
2022/10/19 15:05:40;;;;;;;;;;;21.10;51.60;;;;;;8364738;28;19920;-44
2022/10/19 15:09:42;;;;;;;;;;;21.10;51.60;;;;;;8364962;28;20303;-44
2022/10/19 15:13:43;;;;;;;;;;;21.10;51.60;;;;;;8365679;28;19920;-45
2022/10/19 15:17:50;;;;;;;;;;;21.10;51.60;;;;;;8365324;28;20363;-44
2022/10/19 15:22:10;;;;;;;;;;;21.10;51.60;;;;;;8365053;28;19917;-44
2022/10/19 15:26:16;;;;;;;;;;;21.10;51.60;;;;;;8365157;28;19916;-43
2022/10/19 15:30:17;;;;;;;;;;;21.10;51.70;;;;;;8364450;28;20389;-44
2022/10/19 15:34:37;;;;;;;;;;;21.00;52.20;;;;;;8364720;28;19917;-44
2022/10/19 15:38:38;;;;;;;;;;;21.10;51.70;;;;;;8364695;28;19913;-44
2022/10/19 15:42:40;;;;;;;;;;;21.10;51.70;;;;;;8364123;28;19956;-43
2022/10/19 15:46:44;;;;;;;;;;;21.00;51.70;;;;;;8364107;28;19924;-43
2022/10/19 15:50:49;;;;;;;;;;;21.10;51.70;;;;;;8364334;28;19917;-43
2022/10/19 15:54:50;;;;;;;;;;;21.10;51.70;;;;;;8364231;28;19917;-43
2022/10/19 15:58:51;;;;;;;;;;;21.10;51.70;;;;;;8364451;28;19913;-43
2022/10/19 16:02:52;;;;;;;;;;;21.00;51.70;;;;;;8357387;28;19971;-42
2022/10/19 16:06:52;;;;;;;;;;;21.00;51.70;;;;;;8360734;28;20011;-42
2022/10/19 16:10:53;;;;;;;;;;;21.00;51.70;;;;;;8353182;28;19917;-42
2022/10/19 16:14:53;;;;;;;;;;;21.00;51.70;;;;;;8353805;28;19917;-44
2022/10/19 16:18:54;;;;;;;;;;;21.10;51.80;;;;;;8360219;28;19968;-43
2022/10/19 16:22:55;;;;;;;;;;;21.00;51.70;;;;;;8363176;28;20011;-44
2022/10/19 16:26:55;;;;;;;;;;;21.00;51.70;;;;;;8355137;28;20023;-46
2022/10/19 16:30:56;;;;;;;;;;;21.00;51.70;;;;;;8361580;28;20008;-47
2022/10/19 16:34:56;;;;;;;;;;;21.00;51.80;;;;;;8361754;28;20305;-45
2022/10/19 16:38:58;;;;;;;;;;;21.00;51.80;;;;;;8360466;28;20449;-44
2022/10/19 16:42:59;;;;;;;;;;;21.00;51.80;;;;;;8363406;28;19917;-43
2022/10/19 16:47:00;;;;;;;;;;;21.00;51.80;;;;;;8362994;28;19921;-44
2022/10/19 16:51:06;;;;;;;;;;;21.00;51.90;;;;;;8362811;28;19913;-42
2022/10/19 16:55:07;;;;;;;;;;;21.00;51.80;;;;;;8361655;28;19924;-43
2022/10/19 16:59:10;;;;;;;;;;;21.00;51.90;;;;;;8360836;28;19929;-43
2022/10/19 17:03:10;;;;;;;;;;;21.00;51.80;;;;;;8361685;28;19932;-43
2022/10/19 17:07:11;;;;;;;;;;;21.00;51.80;;;;;;8359855;28;20371;-43
2022/10/19 17:11:12;;;;;;;;;;;21.00;51.90;;;;;;8347875;28;20003;-43
2022/10/19 17:15:12;;;;;;;;;;;21.00;51.90;;;;;;8356703;28;19978;-43
2022/10/19 17:19:13;;;;;;;;;;;21.00;51.90;;;;;;8360575;28;20310;-42
2022/10/19 17:23:13;;;;;;;;;;;20.90;51.90;;;;;;8360597;28;20369;-44
2022/10/19 17:27:14;;;;;;;;;;;21.00;51.90;;;;;;8358892;28;19932;-42
2022/10/19 17:31:14;;;;;;;;;;;20.90;51.90;;;;;;8366597;28;19921;-45
2022/10/19 17:35:15;;;;;;;;;;;20.90;51.90;;;;;;8366514;28;19928;-44
2022/10/19 17:39:17;;;;;;;;;;;21.00;51.90;;;;;;8367409;28;19921;-44
2022/10/19 17:43:17;;;;;;;;;;;20.90;51.90;;;;;;8366357;28;20389;-44
2022/10/19 17:47:18;;;;;;;;;;;20.90;51.80;;;;;;8358415;28;20011;-42
2022/10/19 17:51:19;;;;;;;;;;;20.90;51.90;;;;;;8362648;28;19917;-44
2022/10/19 17:55:20;;;;;;;;;;;20.90;51.80;;;;;;8368545;28;19916;-43
2022/10/19 17:59:20;;;;;;;;;;;21.00;51.90;;;;;;8368421;28;19928;-44
2022/10/19 18:03:22;;;;;;;;;;;20.90;51.80;;;;;;8367421;28;19927;-45
2022/10/19 18:07:24;;;;;;;;;;;20.90;51.90;;;;;;8367927;28;19932;-45
2022/10/19 18:11:26;;;;;;;;;;;20.90;51.90;;;;;;8367961;28;19916;-44
2022/10/19 18:15:26;;;;;;;;;;;20.90;51.80;;;;;;8367282;28;19917;-44
2022/10/19 18:19:27;;;;;;;;;;;20.90;51.80;;;;;;8367785;28;20441;-45
2022/10/19 18:23:27;;;;;;;;;;;20.90;51.90;;;;;;8367520;28;19917;-43
2022/10/19 18:27:27;;;;;;;;;;;20.90;51.90;;;;;;8365578;28;19932;-44
2022/10/19 18:31:29;;;;;;;;;;;20.90;51.90;;;;;;8367270;28;20289;-44
2022/10/19 18:35:33;;;;;;;;;;;20.90;51.90;;;;;;8367170;28;20385;-44
2022/10/19 18:39:33;;;;;;;;;;;20.90;52.00;;;;;;8365669;28;19974;-45
2022/10/19 18:43:34;;;;;;;;;;;20.90;52.00;;;;;;8366763;28;19978;-44
2022/10/19 18:47:34;;;;;;;;;;;20.90;51.90;;;;;;8366675;28;19935;-44
2022/10/19 18:51:34;;;;;;;;;;;20.90;51.90;;;;;;8366192;28;19927;-44
2022/10/19 18:55:35;;;;;;;;;;;20.90;51.80;;;;;;8366485;28;19921;-45
2022/10/19 18:59:35;;;;;;;;;;;20.90;51.90;;;;;;8366659;28;19913;-44
2022/10/19 19:03:37;;;;;;;;;;;20.90;51.90;;;;;;8365816;28;19921;-44
2022/10/19 19:07:37;;;;;;;;;;;20.90;51.90;;;;;;8365376;28;19925;-45
2022/10/19 19:11:39;;;;;;;;;;;20.90;51.90;;;;;;8365857;28;19912;-45
2022/10/19 19:15:40;;;;;;;;;;;20.90;51.90;;;;;;8365275;28;19939;-44
2022/10/19 19:19:40;;;;;;;;;;;20.90;51.90;;;;;;8366191;28;19917;-44
2022/10/19 19:23:41;;;;;;;;;;;20.90;51.90;;;;;;8365687;28;20008;-43
2022/10/19 19:27:41;;;;;;;;;;;20.90;51.90;;;;;;8365075;28;20019;-44
2022/10/19 19:31:42;;;;;;;;;;;20.90;51.90;;;;;;8365303;28;19913;-44
2022/10/19 19:35:46;;;;;;;;;;;20.90;51.80;;;;;;8365533;28;20015;-44
2022/10/19 19:39:47;;;;;;;;;;;20.90;51.80;;;;;;8365267;28;19923;-44
2022/10/19 19:43:47;;;;;;;;;;;20.90;51.80;;;;;;8364955;28;19917;-43
2022/10/19 19:47:48;;;;;;;;;;;20.90;51.80;;;;;;8364321;28;19921;-43
2022/10/19 19:51:48;;;;;;;;;;;20.90;51.80;;;;;;8364467;28;20374;-44
2022/10/19 19:55:49;;;;;;;;;;;20.90;51.80;;;;;;8364605;28;19913;-44
2022/10/19 19:59:49;;;;;;;;;;;20.90;51.80;;;;;;8364408;28;19917;-43
2022/10/19 20:03:49;;;;;;;;;;;20.90;51.80;;;;;;8364157;28;20267;-44
2022/10/19 20:07:51;;;;;;;;;;;20.90;51.80;;;;;;8364259;28;19929;-43
2022/10/19 20:11:51;;;;;;;;;;;20.90;51.80;;;;;;8363745;28;19912;-43
2022/10/19 20:15:52;;;;;;;;;;;20.90;51.90;;;;;;8363960;28;19920;-44
2022/10/19 20:19:53;;;;;;;;;;;20.90;51.90;;;;;;8364155;28;20439;-44
2022/10/19 20:23:53;;;;;;;;;;;20.80;51.90;;;;;;8363426;28;19956;-44
2022/10/19 20:27:53;;;;;;;;;;;20.90;51.90;;;;;;8363603;28;19931;-44
2022/10/19 20:31:54;;;;;;;;;;;20.90;51.90;;;;;;8363547;28;19917;-44
2022/10/19 20:35:55;;;;;;;;;;;20.80;51.80;;;;;;8362948;28;19931;-45
2022/10/19 20:39:55;;;;;;;;;;;20.90;51.80;;;;;;8363597;28;20359;-43
2022/10/19 20:43:56;;;;;;;;;;;20.80;51.80;;;;;;8363410;28;19924;-45
2022/10/19 20:47:56;;;;;;;;;;;20.80;51.90;;;;;;8362859;28;20366;-44
2022/10/19 20:51:57;;;;;;;;;;;20.80;51.90;;;;;;8363308;28;19944;-44
2022/10/19 20:56:01;;;;;;;;;;;20.80;51.90;;;;;;8363377;28;19920;-45
2022/10/19 21:00:02;;;;;;;;;;;20.80;51.90;;;;;;8362791;28;19917;-44
2022/10/19 21:04:04;;;;;;;;;;;20.80;51.80;;;;;;8365541;28;19943;-44
2022/10/19 21:08:06;;;;;;;;;;;20.80;51.90;;;;;;8369647;28;19921;-44
2022/10/19 21:12:06;;;;;;;;;;;20.80;51.90;;;;;;8368025;28;19925;-44
2022/10/19 21:16:14;;;;;;;;;;;20.80;51.80;;;;;;8368778;28;19913;-45
2022/10/19 21:20:14;;;;;;;;;;;20.80;51.90;;;;;;8369823;28;19921;-43
2022/10/19 21:24:16;;;;;;;;;;;20.80;51.90;;;;;;8368842;28;20392;-45
2022/10/19 21:28:17;;;;;;;;;;;20.80;51.80;;;;;;8369390;28;19925;-46
2022/10/19 21:32:19;;;;;;;;;;;20.80;51.80;;;;;;8369098;28;19920;-43
2022/10/19 21:36:21;;;;;;;;;;;20.80;51.80;;;;;;8368372;28;20496;-43
2022/10/19 21:40:21;;;;;;;;;;;20.80;51.80;;;;;;8369017;28;19917;-44
2022/10/19 21:44:22;;;;;;;;;;;20.80;51.80;;;;;;8368742;28;20013;-44
2022/10/19 21:48:22;;;;;;;;;;;20.80;51.80;;;;;;8368130;28;19932;-44
2022/10/19 21:52:23;;;;;;;;;;;20.80;51.80;;;;;;8368781;28;19913;-43
2022/10/19 21:56:23;;;;;;;;;;;20.80;51.80;;;;;;8368646;28;19916;-43
2022/10/19 22:00:24;;;;;;;;;;;20.80;51.80;;;;;;8367846;28;19917;-44
2022/10/19 22:04:24;;;;;;;;;;;20.80;51.80;;;;;;8366455;28;19920;-44
2022/10/19 22:08:25;;;;;;;;;;;20.80;51.80;;;;;;8367959;28;19921;-44
2022/10/19 22:12:25;;;;;;;;;;;20.80;51.90;;;;;;8367480;28;19960;-44
2022/10/19 22:16:26;;;;;;;;;;;20.80;51.90;;;;;;8367717;28;20366;-44
2022/10/19 22:20:26;;;;;;;;;;;20.80;51.90;;;;;;8341211;28;20419;-44
2022/10/19 22:24:27;;;;;;;;;;;20.80;51.80;;;;;;8357633;28;19971;-44
2022/10/19 22:28:27;;;;;;;;;;;20.80;51.90;;;;;;8367527;28;19924;-44
2022/10/19 22:32:27;;;;;;;;;;;20.80;51.90;;;;;;8367169;28;19995;-44
2022/10/19 22:36:28;;;;;;;;;;;20.80;51.90;;;;;;8366836;28;19943;-45
2022/10/19 22:40:28;;;;;;;;;;;20.80;51.90;;;;;;8367127;28;20275;-45
2022/10/19 22:44:29;;;;;;;;;;;20.80;51.90;;;;;;8366897;28;20046;-46
2022/10/19 22:48:30;;;;;;;;;;;20.70;51.90;;;;;;8366299;28;19924;-45
2022/10/19 22:52:30;;;;;;;;;;;20.70;51.90;;;;;;8366841;28;19913;-45
2022/10/19 22:56:31;;;;;;;;;;;20.70;51.90;;;;;;8366689;28;20516;-43
2022/10/19 23:00:31;;;;;;;;;;;20.70;51.80;;;;;;8365870;28;20003;-44
2022/10/19 23:04:31;;;;;;;;;;;20.70;51.80;;;;;;8366090;28;19925;-43
2022/10/19 23:08:32;;;;;;;;;;;20.70;51.90;;;;;;8366042;28;20003;-43
2022/10/19 23:12:32;;;;;;;;;;;20.80;51.90;;;;;;8365587;28;20031;-44
2022/10/19 23:16:33;;;;;;;;;;;20.70;51.90;;;;;;8366059;28;20377;-44
2022/10/19 23:20:33;;;;;;;;;;;20.70;51.90;;;;;;8365711;28;19927;-44
2022/10/19 23:24:34;;;;;;;;;;;20.70;51.90;;;;;;8365072;28;19916;-43
2022/10/19 23:28:35;;;;;;;;;;;20.80;51.90;;;;;;8364739;28;19925;-43